Time;durP1;ratioP1;P1;durP2;ratioP2;P2;SDS_P1;SDS_P2;PMS_P1;PMS_P2;Temp;Humidity;BMP_temperature;BMP_pressure;BME280_temperature;BME280_humidity;BME280_pressure;Samples;Min_cycle;Max_cycle;Signal;HPM_P1;HPM_P2
2021/12/26 00:01:05;;;;;;;5.22;2.80;;;-5.80;99.90;;;;;;4811700;29;20123;-74
2021/12/26 00:03:33;;;;;;;8.25;3.38;;;-5.70;99.90;;;;;;4833559;29;20046;-75
2021/12/26 00:06:05;;;;;;;9.55;3.25;;;-5.80;99.90;;;;;;4836946;29;20400;-76
2021/12/26 00:08:33;;;;;;;6.93;2.65;;;-5.70;99.90;;;;;;4841163;29;20050;-76
2021/12/26 00:10:59;;;;;;;5.38;2.90;;;-5.80;99.90;;;;;;4838444;29;20101;-76
2021/12/26 00:13:24;;;;;;;4.38;2.95;;;-5.70;99.90;;;;;;4833050;29;20128;-74
2021/12/26 00:15:50;;;;;;;7.05;3.72;;;-5.70;99.90;;;;;;4833521;29;20057;-74
2021/12/26 00:18:16;;;;;;;9.65;3.75;;;-5.70;99.90;;;;;;4836954;29;20046;-74
2021/12/26 00:20:42;;;;;;;13.38;4.60;;;-5.70;99.90;;;;;;4822377;29;20403;-74
2021/12/26 00:23:09;;;;;;;9.00;4.10;;;-5.80;99.90;;;;;;4830893;29;20440;-74
2021/12/26 00:25:38;;;;;;;7.22;2.95;;;-5.80;99.90;;;;;;4815133;29;20048;-80
2021/12/26 00:28:04;;;;;;;6.53;3.45;;;-5.80;99.90;;;;;;4843502;29;20064;-79
2021/12/26 00:30:30;;;;;;;7.82;3.78;;;-5.70;99.90;;;;;;4845729;29;20042;-79
2021/12/26 00:32:56;;;;;;;5.15;2.97;;;-5.70;99.90;;;;;;4830635;29;20058;-78
2021/12/26 00:35:23;;;;;;;6.78;3.08;;;-5.60;99.90;;;;;;4835719;29;20854;-74
2021/12/26 00:37:50;;;;;;;6.47;3.40;;;-5.60;99.90;;;;;;4837736;29;20473;-74
2021/12/26 00:40:19;;;;;;;4.47;2.58;;;-5.50;99.90;;;;;;4834165;29;20487;-75
2021/12/26 00:42:46;;;;;;;5.30;2.70;;;-5.40;99.90;;;;;;4839294;29;20045;-74
2021/12/26 00:45:12;;;;;;;5.05;2.47;;;-5.40;99.90;;;;;;4834191;29;20042;-81
2021/12/26 00:47:38;;;;;;;4.70;2.60;;;-5.40;99.90;;;;;;4830704;29;20050;-76
2021/12/26 00:50:07;;;;;;;5.20;2.80;;;-5.30;99.90;;;;;;4849297;29;20077;-76
2021/12/26 00:52:33;;;;;;;6.47;2.40;;;-5.20;99.90;;;;;;4839312;29;20048;-75
2021/12/26 00:54:58;;;;;;;4.82;2.60;;;-5.20;99.90;;;;;;4840005;29;20496;-76
2021/12/26 00:57:24;;;;;;;5.75;3.03;;;-5.20;99.90;;;;;;4844717;29;20061;-75
2021/12/26 00:59:50;;;;;;;5.68;3.00;;;-5.20;99.90;;;;;;4842412;29;20409;-74
2021/12/26 01:02:15;;;;;;;4.22;2.30;;;-5.20;99.90;;;;;;4833199;29;20523;-75
2021/12/26 01:04:42;;;;;;;4.72;2.50;;;-5.30;99.90;;;;;;4838204;29;20042;-75
2021/12/26 01:07:19;;;;;;;6.72;2.50;;;-5.30;99.90;;;;;;4855212;29;20046;-73
2021/12/26 01:09:49;;;;;;;4.20;2.30;;;-5.30;99.90;;;;;;4831301;29;20088;-74
2021/12/26 01:12:16;;;;;;;7.00;2.83;;;-5.40;99.90;;;;;;4828632;29;20497;-74
2021/12/26 01:14:48;;;;;;;5.05;2.72;;;-5.40;99.90;;;;;;4828626;29;20827;-75
2021/12/26 01:17:18;;;;;;;5.68;2.60;;;-5.50;99.90;;;;;;4831666;29;20041;-74
2021/12/26 01:19:48;;;;;;;5.75;3.03;;;-5.50;99.90;;;;;;4827262;29;20098;-74
2021/12/26 01:22:15;;;;;;;5.28;2.70;;;-5.60;99.90;;;;;;4821184;29;20041;-74
2021/12/26 01:24:42;;;;;;;5.55;2.75;;;-5.60;99.90;;;;;;4838462;29;20371;-77
2021/12/26 01:27:08;;;;;;;7.85;2.97;;;-5.60;99.90;;;;;;4832640;29;20523;-77
2021/12/26 01:29:35;;;;;;;3.47;1.98;;;-5.60;99.90;;;;;;4843940;29;20052;-77
2021/12/26 01:32:03;;;;;;;6.97;2.45;;;-5.60;99.90;;;;;;4826405;29;20487;-77
2021/12/26 01:34:28;;;;;;;4.22;2.47;;;-5.60;99.90;;;;;;4859519;29;20053;-77
2021/12/26 01:36:54;;;;;;;3.75;2.10;;;-5.60;99.90;;;;;;4844594;29;20411;-77
2021/12/26 01:39:20;;;;;;;5.13;2.20;;;-5.60;99.90;;;;;;4843490;29;20457;-77
2021/12/26 01:41:46;;;;;;;3.47;1.90;;;-5.60;99.90;;;;;;4826266;29;20056;-77
2021/12/26 01:44:14;;;;;;;5.15;2.00;;;-5.60;99.90;;;;;;4841275;29;20035;-77
2021/12/26 01:46:42;;;;;;;3.15;1.73;;;-5.60;99.90;;;;;;4835212;29;20109;-77
2021/12/26 01:49:18;;;;;;;3.65;1.80;;;-5.60;99.90;;;;;;4831115;29;20046;-77
2021/12/26 01:51:45;;;;;;;4.78;2.13;;;-5.50;99.90;;;;;;4810788;29;20081;-77
2021/12/26 01:54:13;;;;;;;4.75;1.95;;;-5.50;99.90;;;;;;4843760;29;20045;-76
2021/12/26 01:56:42;;;;;;;3.90;1.70;;;-5.40;99.90;;;;;;4843501;29;20077;-77
2021/12/26 01:59:11;;;;;;;4.78;2.20;;;-5.50;99.90;;;;;;4833251;29;20132;-77
2021/12/26 02:01:37;;;;;;;3.92;1.80;;;-5.50;99.90;;;;;;4828955;29;20368;-77
2021/12/26 02:04:04;;;;;;;3.25;1.83;;;-5.50;99.90;;;;;;4838465;29;20121;-77
2021/12/26 02:06:30;;;;;;;4.03;2.15;;;-5.50;99.90;;;;;;4825990;29;20072;-77
2021/12/26 02:08:56;;;;;;;4.18;2.25;;;-5.50;99.90;;;;;;4845014;29;20128;-77
2021/12/26 02:11:21;;;;;;;4.35;1.80;;;-5.50;99.90;;;;;;4843534;29;20128;-77
2021/12/26 02:13:47;;;;;;;4.90;2.13;;;-5.50;99.90;;;;;;4840255;29;20057;-77
2021/12/26 02:16:14;;;;;;;3.90;1.75;;;-5.50;99.90;;;;;;4836387;29;20119;-76
2021/12/26 02:18:40;;;;;;;5.85;2.55;;;-5.50;99.90;;;;;;4836737;29;20072;-77
2021/12/26 02:21:23;;;;;;;8.73;2.40;;;-5.50;99.90;;;;;;4841892;29;20045;-77
2021/12/26 02:24:03;;;;;;;3.47;2.03;;;-5.50;99.90;;;;;;4830152;29;20102;-77
2021/12/26 02:29:13;;;;;;;3.92;1.83;;;-5.50;99.90;;;;;;4834701;29;20053;-76
2021/12/26 02:31:39;;;;;;;3.67;2.08;;;-5.60;99.90;;;;;;4826748;29;20049;-76
2021/12/26 02:34:04;;;;;;;3.70;2.20;;;-5.60;99.90;;;;;;4842834;29;20061;-76
2021/12/26 02:36:32;;;;;;;3.90;1.67;;;-5.60;99.90;;;;;;4858860;29;20042;-76
2021/12/26 02:38:59;;;;;;;3.45;1.80;;;-5.70;99.90;;;;;;4830939;29;20053;-76
2021/12/26 02:41:24;;;;;;;5.22;2.03;;;-5.60;99.90;;;;;;4821148;29;20453;-76
2021/12/26 02:43:50;;;;;;;2.83;1.50;;;-5.60;99.90;;;;;;4839199;29;20078;-76
2021/12/26 02:46:16;;;;;;;2.40;1.38;;;-5.60;99.90;;;;;;4838351;29;20125;-76
2021/12/26 02:48:41;;;;;;;4.25;1.55;;;-5.70;99.90;;;;;;4827175;29;20049;-76
2021/12/26 02:51:07;;;;;;;5.60;2.13;;;-5.70;99.90;;;;;;4831178;29;20646;-76
2021/12/26 02:53:33;;;;;;;4.03;1.90;;;-5.70;99.90;;;;;;4829954;29;20048;-76
2021/12/26 02:56:01;;;;;;;4.57;2.00;;;-5.60;99.90;;;;;;4824569;29;20057;-76
2021/12/26 02:58:27;;;;;;;3.20;1.83;;;-5.60;99.90;;;;;;4833594;29;20504;-76
2021/12/26 03:01:18;;;;;;;5.70;1.70;;;-5.60;99.90;;;;;;4838861;29;20448;-76
2021/12/26 03:03:44;;;;;;;3.88;2.00;;;-5.60;99.90;;;;;;4830661;29;20061;-76
2021/12/26 03:09:13;;;;;;;4.47;2.28;;;-5.70;99.90;;;;;;4782911;29;20139;-76
2021/12/26 03:11:39;;;;;;;4.18;2.00;;;-5.70;99.90;;;;;;4820187;29;20098;-76
2021/12/26 03:14:06;;;;;;;4.72;2.08;;;-5.70;99.90;;;;;;4838069;29;20073;-76
2021/12/26 03:16:32;;;;;;;4.72;1.80;;;-5.70;99.90;;;;;;4813072;29;20066;-76
2021/12/26 03:18:59;;;;;;;3.08;1.92;;;-5.70;99.90;;;;;;4841359;29;20060;-76
2021/12/26 03:21:26;;;;;;;5.22;2.10;;;-5.70;99.90;;;;;;4830844;29;20038;-76
2021/12/26 03:23:52;;;;;;;5.10;1.92;;;-5.70;99.90;;;;;;4827789;29;20054;-76
2021/12/26 03:26:17;;;;;;;2.90;1.80;;;-5.70;99.90;;;;;;4827079;29;20045;-76
2021/12/26 03:28:43;;;;;;;3.08;1.70;;;-5.70;99.90;;;;;;4822024;29;20105;-76
2021/12/26 03:31:10;;;;;;;4.93;2.03;;;-5.70;99.90;;;;;;4832925;29;20045;-75
2021/12/26 03:33:36;;;;;;;3.63;1.85;;;-5.80;99.90;;;;;;4830383;29;20121;-76
2021/12/26 03:36:03;;;;;;;5.07;2.22;;;-5.80;99.90;;;;;;4826914;29;20141;-75
2021/12/26 03:38:29;;;;;;;;;;;-5.80;99.90;;;;;;4824629;29;20106;-75
2021/12/26 03:40:55;;;;;;;4.00;1.80;;;-5.80;99.90;;;;;;4817054;29;19927;-75
2021/12/26 03:43:21;;;;;;;;;;;-5.90;99.90;;;;;;4839304;29;20049;-75
2021/12/26 03:45:49;;;;;;;3.50;1.80;;;-5.90;99.90;;;;;;4835633;29;19956;-76
2021/12/26 03:48:16;;;;;;;4.57;2.20;;;-6.00;99.90;;;;;;4832630;29;20057;-75
2021/12/26 03:50:42;;;;;;;4.57;2.05;;;-6.00;99.90;;;;;;4841842;29;20080;-75
2021/12/26 03:53:09;;;;;;;3.45;2.03;;;-6.00;99.90;;;;;;4841071;29;20046;-75
2021/12/26 03:55:35;;;;;;;4.60;1.85;;;-6.00;99.90;;;;;;4834016;29;20042;-75
2021/12/26 03:58:01;;;;;;;3.50;1.83;;;-6.00;99.90;;;;;;4837622;29;20050;-75
2021/12/26 04:00:28;;;;;;;3.28;1.75;;;-6.00;99.90;;;;;;4814123;29;20056;-76
2021/12/26 04:02:54;;;;;;;3.45;1.90;;;-6.00;99.90;;;;;;4826531;29;20054;-76
2021/12/26 04:05:20;;;;;;;;;;;-6.00;99.90;;;;;;4838220;29;20375;-75
2021/12/26 04:07:46;;;;;;;3.28;1.67;;;-6.00;99.90;;;;;;4843779;29;19920;-75
2021/12/26 04:10:13;;;;;;;2.60;1.48;;;-5.90;99.90;;;;;;4843945;29;20547;-75
2021/12/26 04:12:44;;;;;;;3.20;1.80;;;-6.00;99.90;;;;;;4845362;29;20080;-75
2021/12/26 04:15:14;;;;;;;4.60;1.88;;;-5.90;99.90;;;;;;4838368;29;20455;-76
2021/12/26 04:17:40;;;;;;;2.97;1.60;;;-5.90;99.90;;;;;;4844785;29;20057;-75
2021/12/26 04:20:08;;;;;;;3.65;1.65;;;-6.00;99.90;;;;;;4842421;29;20066;-75
2021/12/26 04:22:34;;;;;;;3.28;1.80;;;-5.90;99.90;;;;;;4831514;29;20097;-76
2021/12/26 04:25:00;;;;;;;2.63;1.80;;;-6.00;99.90;;;;;;4860059;29;20077;-75
2021/12/26 04:27:26;;;;;;;3.13;1.98;;;-5.90;99.90;;;;;;4843785;29;20484;-76
2021/12/26 04:29:53;;;;;;;3.13;1.55;;;-5.90;99.90;;;;;;4833336;29;20101;-76
2021/12/26 04:32:19;;;;;;;4.22;1.80;;;-5.90;99.90;;;;;;4828358;29;20061;-75
2021/12/26 04:34:45;;;;;;;2.90;1.60;;;-6.00;99.90;;;;;;4839615;29;20584;-75
2021/12/26 04:37:11;;;;;;;3.90;1.70;;;-6.00;99.90;;;;;;4842201;29;20041;-76
2021/12/26 04:39:37;;;;;;;4.38;1.58;;;-6.00;99.90;;;;;;4842870;29;20456;-76
2021/12/26 04:42:03;;;;;;;5.38;2.25;;;-6.10;99.90;;;;;;4833542;29;20132;-76
2021/12/26 04:44:29;;;;;;;6.10;2.03;;;-6.10;99.90;;;;;;4857939;29;20056;-76
2021/12/26 04:46:55;;;;;;;3.95;1.67;;;-6.20;99.90;;;;;;4826668;29;20054;-76
2021/12/26 04:49:21;;;;;;;3.35;1.77;;;-6.10;99.90;;;;;;4826426;29;20053;-76
2021/12/26 04:51:47;;;;;;;4.90;1.77;;;-6.20;99.90;;;;;;4833737;29;20056;-76
2021/12/26 04:54:13;;;;;;;5.05;1.60;;;-6.20;99.90;;;;;;4860962;29;20049;-75
2021/12/26 04:56:39;;;;;;;3.28;1.70;;;-6.20;99.90;;;;;;4844222;29;20070;-76
2021/12/26 04:59:05;;;;;;;4.32;1.60;;;-6.20;99.90;;;;;;4843828;29;20041;-76
2021/12/26 05:01:31;;;;;;;4.28;2.00;;;-6.30;99.90;;;;;;4838835;29;20041;-75
2021/12/26 05:03:57;;;;;;;4.93;2.05;;;-6.30;99.90;;;;;;4848186;29;20037;-76
2021/12/26 05:06:23;;;;;;;4.55;2.13;;;-6.30;99.90;;;;;;4838907;29;20444;-76
2021/12/26 05:08:49;;;;;;;;;;;-6.30;99.90;;;;;;4843663;29;20042;-76
2021/12/26 05:11:14;;;;;;;4.72;2.20;;;-6.30;99.90;;;;;;4832185;29;19932;-76
2021/12/26 05:13:40;;;;;;;3.22;1.80;;;-6.30;99.90;;;;;;4817312;29;20573;-76
2021/12/26 05:16:06;;;;;;;3.08;1.40;;;-6.30;99.90;;;;;;4834644;29;20132;-76
2021/12/26 05:18:31;;;;;;;4.03;2.05;;;-6.30;99.90;;;;;;4842597;29;20041;-76
2021/12/26 05:20:57;;;;;;;3.42;2.10;;;-6.30;99.90;;;;;;4843199;29;20137;-76
2021/12/26 05:23:24;;;;;;;4.20;2.15;;;-6.30;99.90;;;;;;4833388;29;20050;-76
2021/12/26 05:25:49;;;;;;;;;;;-6.20;99.90;;;;;;4843474;29;20109;-76
2021/12/26 05:28:15;;;;;;;4.65;2.00;;;-6.30;99.90;;;;;;4827988;29;20010;-76
2021/12/26 05:30:41;;;;;;;3.90;1.80;;;-6.30;99.90;;;;;;4841475;29;20049;-76
2021/12/26 05:33:07;;;;;;;5.88;2.13;;;-6.30;99.90;;;;;;4831073;29;20487;-76
2021/12/26 05:35:33;;;;;;;5.63;2.22;;;-6.20;99.90;;;;;;4842471;29;20045;-76
2021/12/26 05:37:59;;;;;;;;;;;-6.20;99.90;;;;;;4810029;29;20137;-76
2021/12/26 05:40:24;;;;;;;5.32;2.22;;;-6.20;99.90;;;;;;4839778;29;20027;-76
2021/12/26 05:42:50;;;;;;;4.82;1.95;;;-6.20;99.90;;;;;;4841609;29;20056;-76
2021/12/26 05:45:17;;;;;;;4.20;1.92;;;-6.20;99.90;;;;;;4830827;29;20045;-76
2021/12/26 05:47:43;;;;;;;2.60;1.63;;;-6.20;99.90;;;;;;4819799;29;20054;-76
2021/12/26 05:50:14;;;;;;;3.92;1.90;;;-6.20;99.90;;;;;;4830459;29;20045;-76
2021/12/26 05:52:41;;;;;;;4.10;1.83;;;-6.20;99.90;;;;;;4840873;29;20045;-76
2021/12/26 05:55:08;;;;;;;4.13;1.90;;;-6.20;99.90;;;;;;4828671;29;20058;-76
2021/12/26 05:57:34;;;;;;;2.95;1.70;;;-6.20;99.90;;;;;;4827459;29;20164;-76
2021/12/26 06:00:00;;;;;;;4.22;1.90;;;-6.30;99.90;;;;;;4826401;29;20053;-76
2021/12/26 06:02:26;;;;;;;4.50;1.98;;;-6.30;99.90;;;;;;4827609;29;20503;-76
2021/12/26 06:04:51;;;;;;;2.80;1.65;;;-6.30;99.90;;;;;;4842981;29;20502;-76
2021/12/26 06:07:17;;;;;;;4.07;1.63;;;-6.30;99.90;;;;;;4834234;29;20046;-76
2021/12/26 06:09:43;;;;;;;4.53;2.17;;;-6.30;99.90;;;;;;4834427;29;20500;-76
2021/12/26 06:12:09;;;;;;;5.70;2.55;;;-6.30;99.90;;;;;;4841856;29;20120;-76
2021/12/26 06:14:35;;;;;;;4.80;2.00;;;-6.30;99.90;;;;;;4841526;29;20068;-76
2021/12/26 06:17:01;;;;;;;3.42;1.90;;;-6.20;99.90;;;;;;4836090;29;20046;-76
2021/12/26 06:19:27;;;;;;;3.35;1.92;;;-6.30;99.90;;;;;;4826945;29;20045;-76
2021/12/26 06:21:53;;;;;;;4.35;2.30;;;-6.30;99.90;;;;;;4839441;29;20097;-76
2021/12/26 06:24:18;;;;;;;4.45;2.20;;;-6.20;99.90;;;;;;4822422;29;20065;-76
2021/12/26 06:26:46;;;;;;;3.53;1.75;;;-6.20;99.90;;;;;;4838687;29;20041;-76
2021/12/26 06:29:12;;;;;;;5.00;2.22;;;-6.20;99.90;;;;;;4816883;29;20061;-76
2021/12/26 06:31:38;;;;;;;5.43;2.33;;;-6.20;99.90;;;;;;4842500;29;20049;-76
2021/12/26 06:34:04;;;;;;;3.20;1.65;;;-6.20;99.90;;;;;;4832508;29;20076;-76
2021/12/26 06:36:29;;;;;;;4.00;2.08;;;-6.10;99.90;;;;;;4833211;29;20091;-76
2021/12/26 06:38:55;;;;;;;5.75;2.40;;;-6.20;99.90;;;;;;4841911;29;20045;-76
2021/12/26 06:41:22;;;;;;;6.03;2.13;;;-6.20;99.90;;;;;;4839201;29;20083;-76
2021/12/26 06:43:48;;;;;;;4.72;2.38;;;-6.10;99.90;;;;;;4848989;29;20044;-76
2021/12/26 06:46:15;;;;;;;4.20;2.10;;;-6.20;99.90;;;;;;4839177;29;20483;-76
2021/12/26 06:48:41;;;;;;;5.87;2.40;;;-6.10;99.90;;;;;;4823191;29;20062;-76
2021/12/26 06:51:08;;;;;;;3.75;1.60;;;-6.20;99.90;;;;;;4824322;29;20057;-76
2021/12/26 06:53:33;;;;;;;;;;;-6.20;99.90;;;;;;4826025;29;20116;-76
2021/12/26 06:55:59;;;;;;;5.00;2.38;;;-6.10;99.90;;;;;;4824732;29;20064;-76
2021/12/26 06:58:25;;;;;;;3.58;1.90;;;-6.10;99.90;;;;;;4841521;29;20046;-76
2021/12/26 07:00:51;;;;;;;3.95;2.20;;;-6.10;99.90;;;;;;4831321;29;20509;-76
2021/12/26 07:03:17;;;;;;;4.93;2.33;;;-6.10;99.90;;;;;;4834566;29;20045;-76
2021/12/26 07:05:43;;;;;;;3.33;2.10;;;-6.00;99.90;;;;;;4857113;29;20049;-76
2021/12/26 07:08:09;;;;;;;4.90;2.10;;;-6.10;99.90;;;;;;4841687;29;20094;-76
2021/12/26 07:10:35;;;;;;;4.18;2.30;;;-6.10;99.90;;;;;;4826481;29;20053;-77
2021/12/26 07:13:01;;;;;;;3.55;1.95;;;-6.00;99.90;;;;;;4836582;29;20146;-77
2021/12/26 07:15:27;;;;;;;4.45;2.22;;;-6.00;99.90;;;;;;4818086;29;20539;-77
2021/12/26 07:17:52;;;;;;;3.45;1.85;;;-6.00;99.90;;;;;;4819975;29;20050;-78
2021/12/26 07:20:18;;;;;;;3.45;2.13;;;-6.00;99.90;;;;;;4816410;29;20046;-77
2021/12/26 07:22:46;;;;;;;4.63;2.63;;;-6.00;99.90;;;;;;4806133;29;20075;-77
2021/12/26 07:25:12;;;;;;;4.47;2.50;;;-6.00;99.90;;;;;;4807532;29;20117;-78
2021/12/26 07:27:38;;;;;;;4.82;2.40;;;-6.00;99.90;;;;;;4807120;29;20052;-77
2021/12/26 07:30:06;;;;;;;5.25;2.33;;;-6.10;99.90;;;;;;4818035;29;20511;-77
2021/12/26 07:32:32;;;;;;;6.43;2.72;;;-6.00;99.90;;;;;;4809220;29;20050;-78
2021/12/26 07:34:58;;;;;;;4.07;2.67;;;-6.00;99.90;;;;;;4817812;29;20198;-78
2021/12/26 07:37:25;;;;;;;4.00;2.33;;;-6.00;99.90;;;;;;4823345;29;20129;-78
2021/12/26 07:39:51;;;;;;;3.33;2.25;;;-6.00;99.90;;;;;;4814622;29;20518;-78
2021/12/26 07:42:16;;;;;;;4.45;2.22;;;-6.00;99.90;;;;;;4820385;29;20046;-78
2021/12/26 07:44:42;;;;;;;2.67;1.83;;;-6.00;99.90;;;;;;4822663;29;20050;-78
2021/12/26 07:47:09;;;;;;;5.13;2.40;;;-6.10;99.90;;;;;;4818111;29;20499;-78
2021/12/26 07:49:35;;;;;;;4.10;2.40;;;-6.00;99.90;;;;;;4815902;29;20186;-78
2021/12/26 07:52:02;;;;;;;3.38;1.98;;;-6.00;99.90;;;;;;4802403;29;20129;-76
2021/12/26 07:54:28;;;;;;;4.07;2.17;;;-6.10;99.90;;;;;;4811444;29;20054;-78
2021/12/26 07:56:58;;;;;;;2.70;1.75;;;-6.20;99.90;;;;;;4815269;29;20134;-78
2021/12/26 07:59:23;;;;;;;3.83;2.58;;;-6.20;99.90;;;;;;4802057;29;20056;-78
2021/12/26 08:01:49;;;;;;;4.22;2.30;;;-6.20;99.90;;;;;;4800492;29;20046;-78
2021/12/26 08:04:15;;;;;;;3.88;1.90;;;-6.20;99.90;;;;;;4817542;29;20114;-78
2021/12/26 08:06:41;;;;;;;4.30;2.97;;;-6.20;99.90;;;;;;4814071;29;20066;-78
2021/12/26 08:09:08;;;;;;;4.35;2.60;;;-6.20;99.90;;;;;;4822282;29;20126;-78
2021/12/26 08:11:34;;;;;;;4.38;3.00;;;-6.20;99.90;;;;;;4837352;29;20045;-78
2021/12/26 08:14:00;;;;;;;5.50;2.72;;;-6.10;99.90;;;;;;4829407;29;20061;-78
2021/12/26 08:16:26;;;;;;;4.68;2.70;;;-6.10;99.90;;;;;;4853357;29;20053;-78
2021/12/26 08:18:53;;;;;;;;;;;-6.10;99.90;;;;;;4840392;29;20060;-78
2021/12/26 08:21:19;;;;;;;5.00;2.90;;;-6.10;99.90;;;;;;4838478;29;20647;-84
2021/12/26 08:23:44;;;;;;;4.70;2.53;;;-6.00;99.90;;;;;;4825601;29;20172;-79
2021/12/26 08:26:11;;;;;;;5.28;2.70;;;-5.90;99.90;;;;;;4829787;29;20346;-78
2021/12/26 08:28:37;;;;;;;4.68;2.90;;;-5.90;99.90;;;;;;4820753;29;20124;-78
2021/12/26 08:31:03;;;;;;;4.68;2.90;;;-5.90;99.90;;;;;;4846677;29;20449;-78
2021/12/26 08:33:29;;;;;;;4.72;2.83;;;-5.90;99.90;;;;;;4820323;29;20050;-80
2021/12/26 08:35:55;;;;;;;4.50;2.67;;;-5.80;99.90;;;;;;4853248;29;20102;-77
2021/12/26 08:38:21;;;;;;;6.30;3.53;;;-5.80;99.90;;;;;;4840847;29;20041;-79
2021/12/26 08:40:56;;;;;;;5.40;3.20;;;-5.80;99.90;;;;;;4855900;29;20098;-74
2021/12/26 08:43:22;;;;;;;5.20;3.20;;;-5.60;99.90;;;;;;4829872;29;20053;-82
2021/12/26 08:45:49;;;;;;;5.50;3.40;;;-5.60;99.90;;;;;;4843437;29;20038;-77
2021/12/26 08:48:16;;;;;;;5.18;3.45;;;-5.50;99.90;;;;;;4861049;29;20411;-77
2021/12/26 08:50:43;;;;;;;6.40;3.38;;;-5.50;99.90;;;;;;4842252;29;20073;-77
2021/12/26 08:53:09;;;;;;;5.90;3.33;;;-5.40;99.90;;;;;;4842596;29;20102;-77
2021/12/26 08:55:34;;;;;;;3.83;2.47;;;-5.40;99.90;;;;;;4841911;29;20061;-77
2021/12/26 08:58:00;;;;;;;4.88;2.65;;;-5.40;99.90;;;;;;4834904;29;20049;-76
2021/12/26 09:00:26;;;;;;;4.55;3.15;;;-5.30;99.90;;;;;;4838362;29;20062;-73
2021/12/26 09:02:52;;;;;;;4.97;3.45;;;-5.30;99.90;;;;;;4837916;29;20041;-73
2021/12/26 09:05:18;;;;;;;5.35;3.45;;;-5.30;99.90;;;;;;4833364;29;20045;-73
2021/12/26 09:07:44;;;;;;;9.02;3.70;;;-5.30;99.90;;;;;;4819048;29;20057;-73
2021/12/26 09:10:11;;;;;;;7.03;3.95;;;-5.20;99.90;;;;;;4840177;29;20080;-73
2021/12/26 09:12:38;;;;;;;7.40;3.72;;;-5.20;99.90;;;;;;4846715;29;20049;-76
2021/12/26 09:15:04;;;;;;;;;;;-5.10;99.90;;;;;;4818927;29;20771;-76
2021/12/26 09:17:30;;;;;;;6.35;3.40;;;-5.00;99.90;;;;;;4833850;29;20027;-75
2021/12/26 09:19:56;;;;;;;5.55;3.83;;;-4.90;99.90;;;;;;4818556;29;20039;-76
2021/12/26 09:22:22;;;;;;;8.05;3.97;;;-4.80;99.90;;;;;;4812119;29;20560;-76
2021/12/26 09:24:48;;;;;;;5.28;3.60;;;-4.80;99.90;;;;;;4816638;29;20053;-73
2021/12/26 09:27:14;;;;;;;4.55;2.83;;;-4.70;99.90;;;;;;4802279;29;20065;-73
2021/12/26 09:29:40;;;;;;;6.45;3.60;;;-4.70;99.90;;;;;;4803473;29;20453;-73
2021/12/26 09:32:07;;;;;;;4.68;2.67;;;-4.70;99.90;;;;;;4815761;29;20050;-73
2021/12/26 09:34:33;;;;;;;;;;;-4.60;99.90;;;;;;4822048;29;20072;-74
2021/12/26 09:37:01;;;;;;;7.00;4.05;;;-4.60;99.90;;;;;;4807064;29;20015;-72
2021/12/26 09:39:28;;;;;;;6.80;3.92;;;-4.50;99.90;;;;;;4837275;29;20053;-74
2021/12/26 09:41:54;;;;;;;4.75;3.45;;;-4.50;99.90;;;;;;4822703;29;20092;-78
2021/12/26 09:44:21;;;;;;;4.63;2.78;;;-4.40;99.90;;;;;;4818967;29;20080;-77
2021/12/26 09:46:47;;;;;;;5.35;3.20;;;-4.40;99.90;;;;;;4820795;29;20393;-74
2021/12/26 09:49:13;;;;;;;4.85;3.10;;;-4.30;99.90;;;;;;4819722;29;20056;-73
2021/12/26 09:51:39;;;;;;;6.18;3.30;;;-4.30;99.90;;;;;;4820668;29;20061;-73
2021/12/26 09:54:06;;;;;;;6.82;3.65;;;-4.20;99.90;;;;;;4820975;29;20046;-76
2021/12/26 09:56:32;;;;;;;6.18;3.65;;;-4.10;99.90;;;;;;4821807;29;20129;-76
2021/12/26 09:59:02;;;;;;;5.15;3.38;;;-4.00;99.90;;;;;;4818835;29;20046;-77
2021/12/26 10:01:38;;;;;;;5.35;3.08;;;-4.00;99.90;;;;;;4821033;29;20065;-77
2021/12/26 10:04:17;;;;;;;5.28;3.13;;;-3.90;99.90;;;;;;4824037;29;20096;-73
2021/12/26 10:06:44;;;;;;;6.15;3.42;;;-3.90;99.90;;;;;;4820805;29;20053;-73
2021/12/26 10:09:10;;;;;;;;;;;-3.80;99.90;;;;;;4818338;29;20050;-74
2021/12/26 10:11:44;;;;;;;5.32;3.60;;;-3.80;99.90;;;;;;4836057;29;19947;-73
2021/12/26 10:14:16;;;;;;;5.70;3.22;;;-3.70;99.90;;;;;;4833905;29;20094;-73
2021/12/26 10:16:57;;;;;;;6.47;3.60;;;-3.60;99.90;;;;;;4831198;29;20153;-73
2021/12/26 10:19:23;;;;;;;4.40;3.00;;;-3.60;99.90;;;;;;4840104;29;20041;-74
2021/12/26 10:21:58;;;;;;;5.03;3.40;;;-3.50;99.90;;;;;;4851281;29;20041;-73
2021/12/26 10:24:30;;;;;;;5.97;3.40;;;-3.40;99.90;;;;;;4850793;29;20522;-74
2021/12/26 10:27:04;;;;;;;5.82;3.30;;;-3.30;99.90;;;;;;4836586;29;20041;-77
2021/12/26 10:29:39;;;;;;;13.90;3.58;;;-3.30;99.90;;;;;;4832990;29;20053;-77
2021/12/26 10:32:07;;;;;;;6.55;3.10;;;-3.20;99.90;;;;;;4835327;29;20052;-77
2021/12/26 10:34:44;;;;;;;6.13;3.70;;;-3.20;99.90;;;;;;4841886;29;20053;-78
2021/12/26 10:37:23;;;;;;;4.95;3.20;;;-3.10;99.90;;;;;;4840084;29;20337;-78
2021/12/26 10:39:56;;;;;;;5.45;3.20;;;-3.00;99.90;;;;;;4814649;29;20086;-78
2021/12/26 10:42:30;;;;;;;6.45;3.40;;;-2.90;99.90;;;;;;4847664;29;20072;-77
2021/12/26 10:45:20;;;;;;;6.78;3.63;;;-2.70;99.90;;;;;;4842532;29;20081;-77
2021/12/26 10:47:52;;;;;;;5.30;3.08;;;-2.50;99.90;;;;;;4838699;29;20366;-78
2021/12/26 10:50:21;;;;;;;6.22;3.50;;;-2.30;99.90;;;;;;4835252;29;20069;-77
2021/12/26 10:52:57;;;;;;;5.93;3.25;;;-2.20;99.90;;;;;;4840699;29;20085;-76
2021/12/26 10:55:55;;;;;;;6.55;3.00;;;-2.00;99.90;;;;;;4841143;29;20136;-77
2021/12/26 10:58:23;;;;;;;5.03;3.05;;;-2.00;99.90;;;;;;4835356;29;20575;-74
2021/12/26 11:00:55;;;;;;;4.65;2.95;;;-1.70;99.90;;;;;;4837903;29;20152;-74
2021/12/26 11:03:24;;;;;;;5.35;3.15;;;-1.50;99.90;;;;;;4828305;29;20042;-74
2021/12/26 11:05:55;;;;;;;6.95;3.22;;;-1.30;99.90;;;;;;4832869;29;20508;-74
2021/12/26 11:08:36;;;;;;;5.05;3.20;;;-1.10;99.90;;;;;;4855080;29;20152;-74
2021/12/26 11:11:10;;;;;;;5.10;3.10;;;-0.90;99.90;;;;;;4826780;29;20041;-73
2021/12/26 11:13:36;;;;;;;4.00;2.83;;;-0.70;99.40;;;;;;4837819;29;20038;-74
2021/12/26 11:16:06;;;;;;;7.00;3.15;;;-0.60;98.90;;;;;;4829057;29;20052;-74
2021/12/26 11:18:33;;;;;;;4.53;2.70;;;-0.50;98.30;;;;;;4831905;29;20085;-74
2021/12/26 11:21:06;;;;;;;4.65;3.00;;;-0.40;98.60;;;;;;4825916;29;20052;-74
2021/12/26 11:23:38;;;;;;;5.72;2.75;;;-0.30;97.60;;;;;;4836435;29;20053;-74
2021/12/26 11:26:07;;;;;;;5.45;2.92;;;-0.20;96.60;;;;;;4833902;29;20088;-74
2021/12/26 11:28:36;;;;;;;4.45;3.05;;;0.10;98.10;;;;;;4837358;29;20044;-74
2021/12/26 11:31:08;;;;;;;5.38;3.28;;;0.20;95.80;;;;;;4858100;29;20050;-76
2021/12/26 11:33:34;;;;;;;5.13;3.28;;;0.20;95.80;;;;;;4839071;29;20046;-77
2021/12/26 11:36:01;;;;;;;;;;;0.10;95.00;;;;;;4851044;29;20365;-77
2021/12/26 11:38:28;;;;;;;3.85;2.70;;;0.10;96.00;;;;;;4838966;29;20351;-74
2021/12/26 11:41:04;;;;;;;4.97;3.10;;;0.10;96.00;;;;;;4843457;29;20044;-74
2021/12/26 11:44:02;;;;;;;4.97;2.80;;;0.40;97.70;;;;;;4822168;29;20252;-74
2021/12/26 11:47:02;;;;;;;6.10;3.10;;;0.50;97.00;;;;;;4840549;29;20522;-74
2021/12/26 11:50:04;;;;;;;5.63;3.40;;;0.40;94.80;;;;;;4838961;29;20081;-74
2021/12/26 11:52:43;;;;;;;6.68;3.20;;;0.40;94.30;;;;;;4838532;29;20059;-74
2021/12/26 11:55:34;;;;;;;4.65;2.92;;;0.40;94.90;;;;;;4833046;29;20076;-73
2021/12/26 11:58:34;;;;;;;5.78;3.20;;;0.40;95.40;;;;;;4832320;29;20085;-73
2021/12/26 12:01:01;;;;;;;5.10;2.90;;;0.40;94.90;;;;;;4828887;29;20091;-74
2021/12/26 12:03:29;;;;;;;5.65;3.15;;;0.40;95.10;;;;;;4818607;29;20063;-73
2021/12/26 12:05:56;;;;;;;4.68;2.97;;;0.40;94.70;;;;;;4831697;29;20046;-73
2021/12/26 12:08:29;;;;;;;6.05;3.60;;;0.40;95.90;;;;;;4830937;29;20045;-73
2021/12/26 12:10:56;;;;;;;6.45;3.47;;;0.40;94.80;;;;;;4850987;29;20052;-73
2021/12/26 12:13:22;;;;;;;5.90;3.50;;;0.30;94.40;;;;;;4856379;29;20412;-73
2021/12/26 12:15:50;;;;;;;5.67;3.33;;;0.20;94.60;;;;;;4818760;29;20065;-72
2021/12/26 12:18:35;;;;;;;4.07;2.80;;;0.20;95.40;;;;;;4833442;29;20150;-82
2021/12/26 12:21:34;;;;;;;5.90;3.45;;;0.30;95.60;;;;;;4857801;29;20041;-79
2021/12/26 12:24:23;;;;;;;8.63;4.05;;;0.40;95.40;;;;;;4816127;29;20122;-82
2021/12/26 12:26:53;;;;;;;4.90;3.15;;;0.40;94.70;;;;;;4848840;29;20146;-74
2021/12/26 12:29:24;;;;;;;4.63;3.05;;;0.50;95.40;;;;;;4842450;29;20042;-74
2021/12/26 12:32:09;;;;;;;6.03;3.15;;;0.50;94.90;;;;;;4842721;29;20486;-74
2021/12/26 12:35:05;;;;;;;3.88;2.90;;;0.60;95.50;;;;;;4842451;29;20042;-74
2021/12/26 12:37:41;;;;;;;5.60;3.40;;;0.60;94.80;;;;;;4816222;29;20050;-78
2021/12/26 12:40:09;;;;;;;5.22;3.25;;;0.60;95.20;;;;;;4847283;29;20038;-78
2021/12/26 12:42:36;;;;;;;5.65;3.17;;;0.60;94.70;;;;;;4826430;29;20057;-78
2021/12/26 12:45:03;;;;;;;4.88;3.05;;;0.50;95.10;;;;;;4844453;29;20563;-79
2021/12/26 12:47:29;;;;;;;6.40;3.58;;;0.50;95.10;;;;;;4839065;29;20037;-79
2021/12/26 12:50:01;;;;;;;5.47;3.20;;;0.50;95.40;;;;;;4834357;29;20460;-78
2021/12/26 12:52:59;;;;;;;6.15;3.42;;;0.40;95.60;;;;;;4839280;29;20500;-78
2021/12/26 12:56:00;;;;;;;5.38;3.17;;;0.30;95.50;;;;;;4821135;29;20125;-78
2021/12/26 12:58:31;;;;;;;7.07;3.05;;;0.30;95.80;;;;;;4790742;29;20207;-79
2021/12/26 13:00:58;;;;;;;5.88;2.97;;;0.30;95.70;;;;;;4811236;29;20068;-77
2021/12/26 13:03:25;;;;;;;4.85;3.10;;;0.40;95.90;;;;;;4844538;29;20147;-78